Time;durP1;ratioP1;P1;durP2;ratioP2;P2;SDS_P1;SDS_P2;PMS_P1;PMS_P2;Temp;Humidity;BMP_temperature;BMP_pressure;BME280_temperature;BME280_humidity;BME280_pressure;Samples;Min_cycle;Max_cycle;Signal;HPM_P1;HPM_P2
2022/07/26 00:02:06;;;;;;;7.72;5.82;;;21.10;99.90;;;;;;5011460;28;20030;-72
2022/07/26 00:04:32;;;;;;;7.22;5.70;;;21.30;99.90;;;;;;5012200;28;20026;-72
2022/07/26 00:06:57;;;;;;;7.45;5.85;;;20.90;99.90;;;;;;5011992;28;20026;-71
2022/07/26 00:09:23;;;;;;;9.50;6.32;;;21.30;99.90;;;;;;5012121;28;20369;-73
2022/07/26 00:11:49;;;;;;;10.45;5.50;;;21.30;99.90;;;;;;5012646;28;20049;-73
2022/07/26 00:14:14;;;;;;;7.78;4.80;;;21.30;99.90;;;;;;5031841;28;20037;-73
2022/07/26 00:16:40;;;;;;;8.20;5.05;;;21.40;99.90;;;;;;5031601;28;20038;-73
2022/07/26 00:19:06;;;;;;;8.13;5.28;;;21.60;99.90;;;;;;5031829;28;20033;-72
2022/07/26 00:21:35;;;;;;;5.53;4.28;;;21.70;99.90;;;;;;5030819;28;20105;-73
2022/07/26 00:24:04;;;;;;;7.57;4.95;;;21.60;99.90;;;;;;5031694;28;20049;-73
2022/07/26 00:26:30;;;;;;;9.13;4.93;;;21.50;99.90;;;;;;5031521;28;20518;-73
2022/07/26 00:28:56;;;;;;;8.63;6.82;;;21.40;99.90;;;;;;5023320;28;20058;-73
2022/07/26 00:31:21;;;;;;;10.27;7.35;;;21.20;99.90;;;;;;5011186;28;20097;-73
2022/07/26 00:33:47;;;;;;;9.93;8.05;;;20.80;99.90;;;;;;5011867;28;20029;-73
2022/07/26 00:36:12;;;;;;;10.18;7.13;;;20.20;99.90;;;;;;5026496;28;20025;-73
2022/07/26 00:38:39;;;;;;;8.55;6.85;;;20.30;99.90;;;;;;5031552;28;20445;-73
2022/07/26 00:41:06;;;;;;;7.43;6.20;;;20.20;99.90;;;;;;5030923;28;20411;-73
2022/07/26 00:43:32;;;;;;;5.85;5.10;;;20.30;99.90;;;;;;5031392;28;20576;-74
2022/07/26 00:45:58;;;;;;;7.68;5.43;;;20.80;99.90;;;;;;5031314;28;20087;-72
2022/07/26 00:48:24;;;;;;;7.20;4.80;;;20.70;99.90;;;;;;5031342;28;20116;-72
2022/07/26 00:50:52;;;;;;;8.32;5.25;;;21.00;99.90;;;;;;5017006;28;20125;-71
2022/07/26 00:53:19;;;;;;;6.03;4.85;;;21.20;99.90;;;;;;5015680;28;20030;-71
2022/07/26 00:55:45;;;;;;;6.03;4.95;;;21.30;99.90;;;;;;5015531;28;20030;-71
2022/07/26 00:58:12;;;;;;;8.57;5.45;;;21.30;99.90;;;;;;5015566;28;20037;-71
2022/07/26 01:00:37;;;;;;;6.30;5.10;;;21.00;99.90;;;;;;5014770;28;20022;-71
2022/07/26 01:03:04;;;;;;;5.57;4.93;;;21.30;99.90;;;;;;5015470;28;20031;-71
2022/07/26 01:05:31;;;;;;;5.65;4.68;;;21.10;99.90;;;;;;5015348;28;20547;-71
2022/07/26 01:07:57;;;;;;;8.52;4.38;;;21.20;99.90;;;;;;5015480;28;20065;-72
2022/07/26 01:10:22;;;;;;;7.60;4.38;;;21.10;99.90;;;;;;5014738;28;20018;-71
2022/07/26 01:12:48;;;;;;;7.57;4.22;;;21.00;99.90;;;;;;5015328;28;20026;-71
2022/07/26 01:15:15;;;;;;;5.10;4.30;;;21.20;99.90;;;;;;5015198;28;20113;-71
2022/07/26 01:17:41;;;;;;;7.95;4.13;;;21.20;99.90;;;;;;5015262;28;20160;-71
2022/07/26 01:20:09;;;;;;;7.18;3.80;;;21.30;99.90;;;;;;5015072;28;20121;-71
2022/07/26 01:22:35;;;;;;;6.63;4.13;;;21.10;99.90;;;;;;5014506;28;20025;-71
2022/07/26 01:25:00;;;;;;;8.80;4.30;;;21.10;99.90;;;;;;5015113;28;20121;-71
2022/07/26 01:27:26;;;;;;;8.77;3.80;;;21.20;99.90;;;;;;5015004;28;20021;-71
2022/07/26 01:29:52;;;;;;;9.27;4.13;;;21.20;99.90;;;;;;5014820;28;20038;-71
2022/07/26 01:32:18;;;;;;;6.50;3.70;;;21.30;99.90;;;;;;5014333;28;20030;-71
2022/07/26 01:34:44;;;;;;;7.80;3.90;;;21.30;99.90;;;;;;5014831;28;20112;-71
2022/07/26 01:37:10;;;;;;;5.80;3.58;;;21.10;99.90;;;;;;5014932;28;20026;-71
2022/07/26 01:39:35;;;;;;;5.22;3.95;;;21.10;99.90;;;;;;5014788;28;20033;-71
2022/07/26 01:42:01;;;;;;;8.63;4.18;;;21.10;99.90;;;;;;5014088;28;20026;-71
2022/07/26 01:44:27;;;;;;;5.78;3.72;;;21.00;99.90;;;;;;5014575;28;20029;-71
2022/07/26 01:46:52;;;;;;;7.30;4.03;;;20.80;99.90;;;;;;5014540;28;20156;-71
2022/07/26 01:49:18;;;;;;;7.05;4.28;;;21.20;99.90;;;;;;5014775;28;20030;-71
2022/07/26 01:51:43;;;;;;;3.97;3.58;;;21.20;99.90;;;;;;5013981;28;20026;-72
2022/07/26 01:54:09;;;;;;;4.97;3.38;;;21.20;99.90;;;;;;5014724;28;20537;-72
2022/07/26 01:56:35;;;;;;;4.15;3.45;;;21.20;99.90;;;;;;5017981;28;20224;-72
2022/07/26 01:59:00;;;;;;;6.65;3.58;;;21.20;99.90;;;;;;5014358;28;20037;-72
2022/07/26 02:01:26;;;;;;;5.53;3.72;;;21.30;99.90;;;;;;5013542;28;20036;-72
2022/07/26 02:03:52;;;;;;;5.90;3.15;;;21.10;99.90;;;;;;5014312;28;20038;-71
2022/07/26 02:06:17;;;;;;;6.13;3.10;;;21.00;99.90;;;;;;5014276;28;20436;-71
2022/07/26 02:08:43;;;;;;;6.88;3.40;;;21.10;99.90;;;;;;5014320;28;20026;-71
2022/07/26 02:11:08;;;;;;;9.15;3.50;;;21.00;99.90;;;;;;5013630;28;20026;-72
2022/07/26 02:13:37;;;;;;;5.32;3.08;;;20.90;99.90;;;;;;5014050;28;20034;-72
2022/07/26 02:16:05;;;;;;;7.70;3.50;;;21.00;99.90;;;;;;5014142;28;20113;-72
2022/07/26 02:18:31;;;;;;;7.30;3.60;;;21.10;99.90;;;;;;5013950;28;20078;-71
2022/07/26 02:20:58;;;;;;;5.00;3.95;;;21.00;99.90;;;;;;5013870;28;20029;-71
2022/07/26 02:23:25;;;;;;;7.65;3.50;;;21.00;99.90;;;;;;5013913;28;20062;-72
2022/07/26 02:25:50;;;;;;;5.88;3.38;;;20.90;99.90;;;;;;5013811;28;20792;-72
2022/07/26 02:28:16;;;;;;;7.10;3.67;;;20.90;99.90;;;;;;5030929;28;20053;-72
2022/07/26 02:30:44;;;;;;;5.38;3.30;;;21.20;99.90;;;;;;5032975;28;20079;-72
2022/07/26 02:33:10;;;;;;;7.78;4.13;;;21.00;99.90;;;;;;5028174;28;20029;-72
2022/07/26 02:35:36;;;;;;;5.82;3.95;;;20.90;99.90;;;;;;5013805;28;20025;-71
2022/07/26 02:38:07;;;;;;;5.13;3.40;;;21.00;99.90;;;;;;5013721;28;20026;-71
2022/07/26 02:40:34;;;;;;;6.68;3.53;;;20.90;99.90;;;;;;5013087;28;20029;-73
2022/07/26 02:42:59;;;;;;;4.88;3.10;;;20.70;99.90;;;;;;5013611;28;20025;-72
2022/07/26 02:45:25;;;;;;;4.03;3.30;;;20.50;99.90;;;;;;5013603;28;20387;-72
2022/07/26 02:47:52;;;;;;;4.50;3.17;;;20.60;99.90;;;;;;5013410;28;20072;-72
2022/07/26 02:50:20;;;;;;;7.55;3.45;;;20.70;99.90;;;;;;5012794;28;20026;-73
2022/07/26 02:52:47;;;;;;;5.88;3.25;;;20.50;99.90;;;;;;5012022;28;20032;-72
2022/07/26 02:55:17;;;;;;;6.65;3.72;;;20.40;99.90;;;;;;5013293;28;20030;-72
2022/07/26 02:57:43;;;;;;;5.75;3.85;;;20.10;99.90;;;;;;5013340;28;20411;-72
2022/07/26 03:00:10;;;;;;;6.05;3.90;;;20.20;99.90;;;;;;5013300;28;20025;-72
2022/07/26 03:02:36;;;;;;;7.18;3.88;;;20.00;99.90;;;;;;5012701;28;20488;-72
2022/07/26 03:05:03;;;;;;;7.45;4.07;;;20.00;99.90;;;;;;5013109;28;20030;-71
2022/07/26 03:07:29;;;;;;;7.72;3.85;;;19.40;99.90;;;;;;5011956;28;20029;-72
2022/07/26 03:09:55;;;;;;;6.82;4.18;;;19.30;99.90;;;;;;5013547;28;20681;-71
2022/07/26 03:12:20;;;;;;;8.15;4.22;;;19.30;99.90;;;;;;5017491;28;20553;-71
2022/07/26 03:14:46;;;;;;;5.68;3.97;;;19.30;99.90;;;;;;5020686;28;20459;-71
2022/07/26 03:17:11;;;;;;;6.38;4.25;;;19.40;99.90;;;;;;5018050;28;20033;-71
2022/07/26 03:19:37;;;;;;;5.75;3.78;;;19.40;99.90;;;;;;5032711;28;20034;-71
2022/07/26 03:22:03;;;;;;;6.35;4.60;;;19.50;99.90;;;;;;5013839;28;20042;-72
2022/07/26 03:24:28;;;;;;;6.90;4.00;;;19.30;99.90;;;;;;5012948;28;20029;-72
2022/07/26 03:26:54;;;;;;;5.47;4.32;;;19.30;99.90;;;;;;5012655;28;20053;-72
2022/07/26 03:29:19;;;;;;;6.13;4.00;;;19.10;99.90;;;;;;5012851;28;20022;-73
2022/07/26 03:31:45;;;;;;;5.68;3.95;;;19.00;99.90;;;;;;5012022;28;20026;-73
2022/07/26 03:34:10;;;;;;;5.72;4.35;;;18.90;99.90;;;;;;5012850;28;20052;-73
2022/07/26 03:36:36;;;;;;;7.82;4.07;;;19.00;99.90;;;;;;5012630;28;20025;-73
2022/07/26 03:39:02;;;;;;;7.72;4.50;;;19.00;99.90;;;;;;5012593;28;20026;-74
2022/07/26 03:41:30;;;;;;;8.43;4.60;;;18.70;99.90;;;;;;5011924;28;20473;-73
2022/07/26 03:43:56;;;;;;;8.77;4.97;;;18.80;99.90;;;;;;5012502;28;20112;-73
2022/07/26 03:46:22;;;;;;;8.25;4.88;;;19.00;99.90;;;;;;5007962;28;20121;-76
2022/07/26 03:48:47;;;;;;;5.25;4.50;;;18.80;99.90;;;;;;5003666;28;20050;-71
2022/07/26 03:51:13;;;;;;;8.13;4.47;;;19.10;99.90;;;;;;5017219;28;20495;-71
2022/07/26 03:53:38;;;;;;;5.97;3.90;;;19.00;99.90;;;;;;5020368;28;20072;-72
2022/07/26 03:58:49;;;;;;;9.77;5.32;;;19.10;99.90;;;;;;5025820;28;20109;-72
2022/07/26 04:01:14;;;;;;;9.30;5.38;;;18.70;99.90;;;;;;5019225;28;20116;-71
2022/07/26 04:03:40;;;;;;;7.63;4.97;;;18.30;99.90;;;;;;5018586;28;20037;-71
2022/07/26 04:06:05;;;;;;;7.25;5.00;;;18.30;99.90;;;;;;5024796;28;20022;-71
2022/07/26 04:08:31;;;;;;;6.15;4.63;;;18.40;99.90;;;;;;5025310;28;20075;-71
2022/07/26 04:10:56;;;;;;;7.68;4.80;;;18.30;99.90;;;;;;5011504;28;20034;-71
2022/07/26 04:13:22;;;;;;;7.97;5.20;;;18.30;99.90;;;;;;5012100;28;20105;-71
2022/07/26 04:15:48;;;;;;;7.68;4.93;;;18.20;99.90;;;;;;5017630;28;20025;-71
2022/07/26 04:18:14;;;;;;;8.00;5.78;;;18.30;99.90;;;;;;5031785;28;20470;-72
2022/07/26 04:20:40;;;;;;;8.05;4.80;;;17.90;99.90;;;;;;5024054;28;20049;-72
2022/07/26 04:23:06;;;;;;;8.70;5.13;;;18.40;99.90;;;;;;5011873;28;20072;-71
2022/07/26 04:25:33;;;;;;;5.72;4.40;;;18.40;99.90;;;;;;5011932;28;20022;-71
2022/07/26 04:27:59;;;;;;;8.32;5.38;;;18.40;99.90;;;;;;5011978;28;20018;-72
2022/07/26 04:30:25;;;;;;;9.10;5.00;;;18.20;99.90;;;;;;5018281;28;20392;-72
2022/07/26 04:32:50;;;;;;;8.48;5.30;;;18.10;99.90;;;;;;5017991;28;20052;-72
2022/07/26 04:35:16;;;;;;;6.90;5.75;;;17.90;99.90;;;;;;5018835;28;20029;-72
2022/07/26 04:37:43;;;;;;;8.77;5.88;;;17.90;99.90;;;;;;5018566;28;20102;-72
2022/07/26 04:40:10;;;;;;;8.18;6.10;;;17.90;99.90;;;;;;5024474;28;20026;-72
2022/07/26 04:42:36;;;;;;;11.15;6.47;;;18.00;99.90;;;;;;5024791;28;20471;-72
2022/07/26 04:45:03;;;;;;;10.15;6.00;;;17.90;99.90;;;;;;5018892;28;20104;-72
2022/07/26 04:47:28;;;;;;;8.07;5.60;;;18.00;99.90;;;;;;5030885;28;20052;-72
2022/07/26 04:49:54;;;;;;;8.43;6.78;;;18.50;99.90;;;;;;5011692;28;20034;-72
2022/07/26 04:52:19;;;;;;;7.25;5.15;;;18.70;99.90;;;;;;5024153;28;20712;-72
2022/07/26 04:54:45;;;;;;;6.40;5.00;;;18.80;99.90;;;;;;5011692;28;20544;-72
2022/07/26 04:57:10;;;;;;;6.75;5.35;;;19.00;99.90;;;;;;5010110;28;20357;-72
2022/07/26 04:59:36;;;;;;;9.45;6.45;;;19.10;99.90;;;;;;5010349;28;20083;-72
2022/07/26 05:02:01;;;;;;;10.43;5.78;;;19.00;99.90;;;;;;5011009;28;20388;-72
2022/07/26 05:04:27;;;;;;;7.65;5.97;;;18.80;99.90;;;;;;5011640;28;20026;-72
2022/07/26 05:06:52;;;;;;;8.02;6.10;;;18.80;99.90;;;;;;5025647;28;20434;-71
2022/07/26 05:09:18;;;;;;;7.82;6.18;;;18.90;99.90;;;;;;5023742;28;20030;-71
2022/07/26 05:11:44;;;;;;;10.13;6.68;;;18.40;99.90;;;;;;5012031;28;20045;-72
2022/07/26 05:14:09;;;;;;;9.50;6.20;;;18.30;99.90;;;;;;5022333;28;20018;-72
2022/07/26 05:16:35;;;;;;;11.05;6.22;;;18.30;99.90;;;;;;5025584;28;20036;-72
2022/07/26 05:19:00;;;;;;;8.75;6.20;;;18.30;99.90;;;;;;5031181;28;20241;-72
2022/07/26 05:21:26;;;;;;;8.40;5.75;;;18.50;99.90;;;;;;5029226;28;20049;-72
2022/07/26 05:23:53;;;;;;;8.45;5.80;;;18.70;99.90;;;;;;5023221;28;20033;-72
2022/07/26 05:26:19;;;;;;;7.60;5.10;;;19.00;99.90;;;;;;5009956;28;20036;-72
2022/07/26 05:28:45;;;;;;;8.02;5.25;;;19.20;99.90;;;;;;5011314;28;20014;-72
2022/07/26 05:31:10;;;;;;;5.57;4.50;;;19.40;99.90;;;;;;5008903;28;20101;-72
2022/07/26 05:33:36;;;;;;;7.43;5.47;;;19.60;99.90;;;;;;5005359;28;20030;-72
2022/07/26 05:36:02;;;;;;;7.10;4.65;;;19.60;99.90;;;;;;5009573;28;20029;-72
2022/07/26 05:38:27;;;;;;;8.00;4.80;;;19.70;99.90;;;;;;5021685;28;20538;-72
2022/07/26 05:40:53;;;;;;;5.53;4.68;;;19.60;99.90;;;;;;5033864;28;20029;-72
2022/07/26 05:43:19;;;;;;;9.90;5.90;;;19.70;99.90;;;;;;5026643;28;20062;-72
2022/07/26 05:45:44;;;;;;;9.57;5.93;;;19.50;99.90;;;;;;5014694;28;20473;-72
2022/07/26 05:48:10;;;;;;;7.15;5.90;;;19.00;99.90;;;;;;5021142;28;20772;-72
2022/07/26 05:50:35;;;;;;;8.77;6.30;;;19.20;99.90;;;;;;5019892;28;20528;-72
2022/07/26 05:53:01;;;;;;;9.85;5.20;;;18.80;99.90;;;;;;5034436;28;20025;-72
2022/07/26 05:55:41;;;;;;;7.95;5.43;;;19.00;99.90;;;;;;5006901;28;20050;-73
2022/07/26 05:58:07;;;;;;;7.40;5.28;;;18.80;99.90;;;;;;5014118;28;20381;-71
2022/07/26 06:00:33;;;;;;;7.22;5.60;;;18.70;99.90;;;;;;5013664;28;20026;-72
2022/07/26 06:02:59;;;;;;;8.95;5.45;;;19.20;99.90;;;;;;5014370;28;20044;-72
2022/07/26 06:05:24;;;;;;;9.70;6.32;;;19.20;99.90;;;;;;5029774;28;20029;-71
2022/07/26 06:07:50;;;;;;;7.25;5.45;;;19.30;99.90;;;;;;5025522;28;20646;-71
2022/07/26 06:10:15;;;;;;;11.75;6.45;;;19.30;99.90;;;;;;5015721;28;20030;-72
2022/07/26 06:12:41;;;;;;;15.88;7.97;;;19.50;99.90;;;;;;5033996;28;20430;-71
2022/07/26 06:15:07;;;;;;;8.18;5.75;;;19.70;99.90;;;;;;5018691;28;20061;-71
2022/07/26 06:17:32;;;;;;;8.20;5.05;;;19.80;99.90;;;;;;5014125;28;20460;-71
2022/07/26 06:19:59;;;;;;;7.60;4.38;;;20.00;99.90;;;;;;5014038;28;20084;-71
2022/07/26 06:22:25;;;;;;;5.72;4.85;;;19.90;99.90;;;;;;5013435;28;20022;-71
2022/07/26 06:24:50;;;;;;;45.92;16.55;;;20.30;99.90;;;;;;5016423;28;20455;-71
2022/07/26 06:27:16;;;;;;;10.75;5.38;;;20.50;99.90;;;;;;5024528;28;20026;-71
2022/07/26 06:29:42;;;;;;;7.57;4.03;;;20.50;99.90;;;;;;5013748;28;20030;-71
2022/07/26 06:32:07;;;;;;;18.05;8.05;;;20.50;99.90;;;;;;5013346;28;20524;-71
2022/07/26 06:34:33;;;;;;;13.15;4.70;;;20.50;99.90;;;;;;5029876;28;20041;-71
2022/07/26 06:36:59;;;;;;;8.73;3.65;;;21.00;99.90;;;;;;5032259;28;20032;-71
2022/07/26 06:39:24;;;;;;;4.85;3.03;;;20.90;99.90;;;;;;5033550;28;20484;-71
2022/07/26 06:41:50;;;;;;;6.57;3.65;;;21.00;99.90;;;;;;5023593;28;20064;-71
2022/07/26 06:44:16;;;;;;;4.88;3.30;;;21.20;99.90;;;;;;5012315;28;20374;-71
2022/07/26 06:46:41;;;;;;;7.47;3.63;;;21.00;99.90;;;;;;5013717;28;20033;-71
2022/07/26 06:49:07;;;;;;;5.97;3.47;;;21.00;99.90;;;;;;5013045;28;20531;-72
2022/07/26 06:51:32;;;;;;;9.98;3.42;;;21.10;99.90;;;;;;5012976;28;20496;-71
2022/07/26 06:53:58;;;;;;;8.15;3.33;;;21.30;99.90;;;;;;5013468;28;20034;-72
2022/07/26 06:56:23;;;;;;;7.20;3.15;;;21.40;99.90;;;;;;5013421;28;20213;-71
2022/07/26 06:58:49;;;;;;;7.05;3.60;;;21.40;99.90;;;;;;5012045;28;20049;-71
2022/07/26 07:01:15;;;;;;;9.15;3.83;;;21.50;99.90;;;;;;5012586;28;20127;-74
2022/07/26 07:03:40;;;;;;;5.60;3.00;;;21.70;99.90;;;;;;5013216;28;20040;-71
2022/07/26 07:06:06;;;;;;;8.38;3.63;;;22.00;99.90;;;;;;5013163;28;20018;-71
2022/07/26 07:08:32;;;;;;;7.60;3.30;;;22.00;99.90;;;;;;5012949;28;20377;-71
2022/07/26 07:10:58;;;;;;;7.72;3.33;;;21.70;99.90;;;;;;5012464;28;20055;-72
2022/07/26 07:13:23;;;;;;;6.20;2.92;;;21.60;99.90;;;;;;5012949;28;20030;-72
2022/07/26 07:15:49;;;;;;;5.30;2.70;;;21.60;99.90;;;;;;5012595;28;20088;-72
2022/07/26 07:18:14;;;;;;;7.70;3.25;;;21.50;99.90;;;;;;5012873;28;20017;-71
2022/07/26 07:20:40;;;;;;;7.18;2.92;;;21.60;99.90;;;;;;5013356;28;20030;-71
2022/07/26 07:23:06;;;;;;;5.38;2.63;;;22.00;99.90;;;;;;5012025;28;20065;-72
2022/07/26 07:25:32;;;;;;;6.68;2.60;;;22.00;99.90;;;;;;5011398;28;20550;-72
2022/07/26 07:27:58;;;;;;;6.15;2.80;;;21.90;99.90;;;;;;5012332;28;20037;-71
2022/07/26 07:30:25;;;;;;;3.95;2.13;;;21.90;99.90;;;;;;5011696;28;20503;-71
2022/07/26 07:32:50;;;;;;;6.70;2.47;;;22.10;99.90;;;;;;5012651;28;20034;-71
2022/07/26 07:35:16;;;;;;;5.20;2.35;;;22.10;99.90;;;;;;5012596;28;20467;-71
2022/07/26 07:37:41;;;;;;;6.63;2.55;;;21.90;99.90;;;;;;5012607;28;20020;-71
2022/07/26 07:40:08;;;;;;;8.88;2.35;;;21.80;99.90;;;;;;5011380;28;20033;-71
2022/07/26 07:42:34;;;;;;;6.55;2.30;;;21.70;99.90;;;;;;5011819;28;20033;-71
2022/07/26 07:45:00;;;;;;;5.22;2.50;;;21.70;99.90;;;;;;5012461;28;20524;-72
2022/07/26 07:47:25;;;;;;;4.00;2.20;;;21.70;99.90;;;;;;5012304;28;20026;-75
2022/07/26 07:49:51;;;;;;;6.63;2.72;;;21.80;99.90;;;;;;5012460;28;20373;-71
2022/07/26 07:52:16;;;;;;;7.35;2.20;;;22.00;99.90;;;;;;5011800;28;20037;-71
2022/07/26 07:54:42;;;;;;;6.30;2.75;;;22.10;99.90;;;;;;5012219;28;20524;-71
2022/07/26 07:57:08;;;;;;;8.50;2.83;;;22.10;99.90;;;;;;5010625;28;20025;-71
2022/07/26 07:59:33;;;;;;;4.60;2.38;;;22.10;99.90;;;;;;5010299;28;20169;-71
2022/07/26 08:01:59;;;;;;;6.32;2.40;;;22.50;99.90;;;;;;5008766;28;20057;-71
2022/07/26 08:04:24;;;;;;;4.88;2.50;;;22.30;99.90;;;;;;5012157;28;20022;-71
2022/07/26 08:06:50;;;;;;;7.28;2.40;;;22.10;99.90;;;;;;5026064;28;20028;-71
2022/07/26 08:09:16;;;;;;;3.72;2.20;;;21.70;99.90;;;;;;5031823;28;20021;-71
2022/07/26 08:11:41;;;;;;;7.03;2.65;;;21.80;99.90;;;;;;5031119;28;20475;-71
2022/07/26 08:14:07;;;;;;;8.02;2.67;;;21.70;99.90;;;;;;5031768;28;20029;-71
2022/07/26 08:16:33;;;;;;;4.97;2.08;;;21.90;99.90;;;;;;5030205;28;20032;-71
2022/07/26 08:18:58;;;;;;;8.23;2.60;;;22.40;99.90;;;;;;5031656;28;20397;-71
2022/07/26 08:21:24;;;;;;;5.55;2.63;;;22.50;99.90;;;;;;5017019;28;20028;-71
2022/07/26 08:23:50;;;;;;;4.50;2.20;;;22.60;99.90;;;;;;5011792;28;20029;-71
2022/07/26 08:26:16;;;;;;;6.78;2.50;;;23.00;99.90;;;;;;5011824;28;20030;-71
2022/07/26 08:28:41;;;;;;;4.95;2.13;;;22.90;99.90;;;;;;5011817;28;20026;-71
2022/07/26 08:31:07;;;;;;;4.78;2.40;;;23.30;99.90;;;;;;5008233;28;20029;-71
2022/07/26 08:33:32;;;;;;;5.35;2.55;;;23.10;99.90;;;;;;5012707;28;20087;-71
2022/07/26 08:35:58;;;;;;;6.80;2.92;;;22.80;99.90;;;;;;5024641;28;20032;-71
2022/07/26 08:38:23;;;;;;;7.38;2.50;;;22.70;99.90;;;;;;5031525;28;20026;-71
2022/07/26 08:40:49;;;;;;;5.65;2.50;;;22.90;99.90;;;;;;5030919;28;20100;-71
2022/07/26 08:43:15;;;;;;;3.25;2.30;;;22.90;99.90;;;;;;5031359;28;20035;-71
2022/07/26 08:45:40;;;;;;;4.90;2.22;;;23.20;99.90;;;;;;5031370;28;20014;-71
2022/07/26 08:48:06;;;;;;;5.38;2.40;;;23.20;99.90;;;;;;5031333;28;20064;-71
2022/07/26 08:50:32;;;;;;;4.25;2.47;;;23.00;99.90;;;;;;5017485;28;20026;-71
2022/07/26 08:53:02;;;;;;;5.57;2.78;;;23.00;99.90;;;;;;4998852;28;20026;-71
2022/07/26 08:55:28;;;;;;;7.13;2.50;;;23.50;99.90;;;;;;5011599;28;20113;-71
2022/07/26 08:57:54;;;;;;;6.55;2.28;;;23.70;99.90;;;;;;5018541;28;20470;-71
2022/07/26 09:00:21;;;;;;;6.05;2.60;;;23.60;99.90;;;;;;5030696;28;20034;-71
2022/07/26 09:02:47;;;;;;;4.35;2.05;;;23.60;99.90;;;;;;5031318;28;20021;-71
2022/07/26 09:05:13;;;;;;;3.75;2.30;;;24.10;99.90;;;;;;5031180;28;20395;-71
2022/07/26 09:07:40;;;;;;;6.47;2.10;;;24.20;99.90;;;;;;5031301;28;20028;-71
2022/07/26 09:10:11;;;;;;;4.40;2.30;;;24.30;99.90;;;;;;5030856;28;20049;-71
2022/07/26 09:12:37;;;;;;;7.22;2.55;;;23.90;99.90;;;;;;5014271;28;20105;-72
2022/07/26 09:15:06;;;;;;;5.63;2.17;;;23.50;99.90;;;;;;5015424;28;20034;-71
2022/07/26 09:17:42;;;;;;;6.10;2.50;;;23.50;99.90;;;;;;5015319;28;20444;-71
2022/07/26 09:20:09;;;;;;;;;;;23.30;99.90;;;;;;5015626;28;20068;-71
2022/07/26 09:22:54;;;;;;;8.13;2.42;;;23.80;99.90;;;;;;5014459;28;19963;-72
2022/07/26 09:25:22;;;;;;;5.20;2.25;;;23.60;99.90;;;;;;5015219;28;20057;-71
2022/07/26 09:27:48;;;;;;;4.28;2.20;;;23.50;99.90;;;;;;5015013;28;20084;-71
2022/07/26 09:30:14;;;;;;;5.53;2.38;;;23.50;99.90;;;;;;5009999;28;20027;-71
2022/07/26 09:32:40;;;;;;;6.00;2.90;;;23.40;99.90;;;;;;5007743;28;20037;-71
2022/07/26 09:35:11;;;;;;;5.18;2.22;;;23.40;99.90;;;;;;5014848;28;20034;-71
2022/07/26 09:37:38;;;;;;;5.35;2.22;;;23.90;99.90;;;;;;5014736;28;20109;-71
2022/07/26 09:40:07;;;;;;;5.15;2.50;;;23.90;99.90;;;;;;5014875;28;20124;-71
2022/07/26 09:42:33;;;;;;;7.03;2.03;;;23.40;99.90;;;;;;5014094;28;20073;-71
2022/07/26 09:44:59;;;;;;;6.72;2.35;;;23.40;99.90;;;;;;5014770;28;20030;-71
2022/07/26 09:47:36;;;;;;;9.02;2.60;;;23.90;99.90;;;;;;5014429;28;20038;-71
2022/07/26 09:50:10;;;;;;;10.77;3.00;;;24.10;99.90;;;;;;5014636;28;20480;-71
2022/07/26 09:52:36;;;;;;;6.90;2.50;;;24.40;99.90;;;;;;5013807;28;20026;-71
2022/07/26 09:55:05;;;;;;;5.80;2.30;;;24.80;99.90;;;;;;5014603;28;20030;-71
2022/07/26 09:57:33;;;;;;;4.68;2.03;;;25.10;99.90;;;;;;5014433;28;20030;-71
2022/07/26 10:00:04;;;;;;;4.88;1.90;;;24.70;99.90;;;;;;5014540;28;20049;-71
2022/07/26 10:02:31;;;;;;;4.63;1.73;;;25.40;99.90;;;;;;5013718;28;20356;-71
2022/07/26 10:04:57;;;;;;;4.80;2.67;;;25.50;99.90;;;;;;5014370;28;20029;-71
2022/07/26 10:07:22;;;;;;;4.55;2.40;;;25.10;99.90;;;;;;5014215;28;20423;-71
2022/07/26 10:10:18;;;;;;;5.55;2.00;;;25.40;99.90;;;;;;5013014;28;20114;-71
2022/07/26 10:12:45;;;;;;;4.60;2.55;;;25.20;99.90;;;;;;5012902;28;20042;-71
2022/07/26 10:15:34;;;;;;;6.90;2.40;;;25.80;99.90;;;;;;5014191;28;20037;-71
2022/07/26 10:18:00;;;;;;;7.55;2.15;;;25.40;99.90;;;;;;5014082;28;20026;-71
2022/07/26 10:20:50;;;;;;;4.65;1.92;;;25.30;99.90;;;;;;5013323;28;20481;-71
2022/07/26 10:23:31;;;;;;;4.65;1.88;;;25.50;99.90;;;;;;5013883;28;20112;-71
2022/07/26 10:25:57;;;;;;;4.18;1.90;;;25.80;99.90;;;;;;5014019;28;20022;-71
2022/07/26 10:28:25;;;;;;;5.25;2.20;;;25.40;99.90;;;;;;5014040;28;20028;-71
2022/07/26 10:30:52;;;;;;;5.35;2.05;;;24.80;99.90;;;;;;5013233;28;20034;-71
2022/07/26 10:33:22;;;;;;;8.32;1.80;;;24.30;99.90;;;;;;5013851;28;20408;-71
2022/07/26 10:35:48;;;;;;;2.65;1.38;;;24.50;99.90;;;;;;5012263;28;20026;-71
2022/07/26 10:38:25;;;;;;;4.95;1.80;;;25.10;99.90;;;;;;5013676;28;20068;-72
2022/07/26 10:41:06;;;;;;;5.30;1.70;;;25.50;99.90;;;;;;5013092;28;20692;-71
2022/07/26 10:43:33;;;;;;;5.50;1.85;;;25.50;99.90;;;;;;5011900;28;20040;-71
2022/07/26 10:46:17;;;;;;;2.65;1.70;;;25.70;99.90;;;;;;5011565;28;20096;-71
2022/07/26 10:49:02;;;;;;;4.68;1.40;;;26.30;99.90;;;;;;5011805;28;20541;-71
2022/07/26 10:51:32;;;;;;;4.35;1.40;;;26.10;99.90;;;;;;4999713;28;20382;-71
2022/07/26 10:54:09;;;;;;;2.45;1.40;;;25.90;99.90;;;;;;5013176;28;20504;-71
2022/07/26 10:56:34;;;;;;;4.78;1.80;;;26.30;99.90;;;;;;5013031;28;20087;-71
2022/07/26 10:59:01;;;;;;;2.42;1.60;;;25.80;99.90;;;;;;5013367;28;20439;-71
2022/07/26 11:01:39;;;;;;;3.20;1.58;;;25.60;99.90;;;;;;5012663;28;20080;-71
2022/07/26 11:04:21;;;;;;;4.00;1.40;;;26.00;99.90;;;;;;5013024;28;20136;-71
2022/07/26 11:06:46;;;;;;;4.85;1.58;;;26.40;99.90;;;;;;5013087;28;20033;-71
2022/07/26 11:09:13;;;;;;;3.63;1.40;;;26.50;99.90;;;;;;5013207;28;20030;-71
2022/07/26 11:11:38;;;;;;;3.95;1.60;;;26.60;99.90;;;;;;5012350;28;20029;-71
2022/07/26 11:14:09;;;;;;;3.63;1.80;;;26.30;99.90;;;;;;5008581;28;20449;-72
2022/07/26 11:16:46;;;;;;;4.28;1.50;;;26.00;99.90;;;;;;5007198;28;20493;-71
2022/07/26 11:19:15;;;;;;;4.35;1.70;;;26.00;99.90;;;;;;5012963;28;20404;-71
2022/07/26 11:21:45;;;;;;;5.20;1.90;;;26.50;99.90;;;;;;5012268;28;20192;-71
2022/07/26 11:24:11;;;;;;;6.05;1.70;;;26.30;99.90;;;;;;5013098;28;20030;-71
2022/07/26 11:26:44;;;;;;;3.33;1.40;;;26.10;99.90;;;;;;5012922;28;20018;-71
2022/07/26 11:29:11;;;;;;;4.30;1.60;;;26.60;99.90;;;;;;5012970;28;20084;-71
2022/07/26 11:31:44;;;;;;;3.20;1.63;;;26.00;99.90;;;;;;5012128;28;20021;-71
2022/07/26 11:34:21;;;;;;;6.38;1.90;;;24.90;99.90;;;;;;5012386;28;20041;-71
2022/07/26 11:36:49;;;;;;;2.72;1.20;;;25.30;99.90;;;;;;5012559;28;20079;-71
2022/07/26 11:39:29;;;;;;;1.83;1.27;;;25.00;99.50;;;;;;5012649;28;20018;-71
2022/07/26 11:42:04;;;;;;;2.95;1.20;;;25.40;99.60;;;;;;5010182;28;20232;-71
2022/07/26 11:44:30;;;;;;;2.47;1.52;;;25.50;99.40;;;;;;5010063;28;20412;-71
2022/07/26 11:46:56;;;;;;;2.95;1.38;;;26.30;98.70;;;;;;5008443;28;20026;-71
2022/07/26 11:49:27;;;;;;;2.35;1.48;;;26.60;98.70;;;;;;5012327;28;20035;-71
2022/07/26 11:51:54;;;;;;;1.63;1.38;;;26.50;99.10;;;;;;5011741;28;20018;-71
2022/07/26 11:54:21;;;;;;;2.22;1.30;;;26.90;98.70;;;;;;5016385;28;20022;-71
2022/07/26 11:57:02;;;;;;;5.63;1.67;;;27.20;98.40;;;;;;5024302;28;20029;-71
2022/07/26 11:59:30;;;;;;;2.97;1.30;;;27.40;98.70;;;;;;5006874;28;20048;-71
2022/07/26 12:01:57;;;;;;;2.22;1.27;;;27.40;97.70;;;;;;5011389;28;20041;-71
2022/07/26 12:04:24;;;;;;;4.20;1.35;;;27.60;98.10;;;;;;5012235;28;20492;-71
2022/07/26 12:06:52;;;;;;;1.90;1.20;;;27.70;97.90;;;;;;5012143;28;20076;-71
2022/07/26 12:09:50;;;;;;;1.95;1.30;;;27.80;96.60;;;;;;5012253;28;20489;-71
2022/07/26 12:12:22;;;;;;;3.05;1.50;;;27.60;96.10;;;;;;5007271;28;20433;-71
2022/07/26 12:14:58;;;;;;;2.25;1.25;;;27.20;97.00;;;;;;5012075;28;20045;-71
2022/07/26 12:17:25;;;;;;;3.03;1.60;;;27.30;97.40;;;;;;5010785;28;20038;-71
2022/07/26 12:19:50;;;;;;;4.25;1.40;;;26.80;97.10;;;;;;5011978;28;20026;-71
2022/07/26 12:22:18;;;;;;;2.55;1.52;;;26.90;98.10;;;;;;5011225;28;20106;-71
2022/07/26 12:24:57;;;;;;;2.67;1.50;;;27.30;96.10;;;;;;5011955;28;20429;-71
2022/07/26 12:27:25;;;;;;;1.77;1.30;;;27.70;97.00;;;;;;5011972;28;20054;-71
2022/07/26 12:29:54;;;;;;;2.53;1.48;;;27.40;95.50;;;;;;5011835;28;20421;-71
2022/07/26 12:32:21;;;;;;;2.25;1.23;;;27.70;95.40;;;;;;5011277;28;20033;-71
2022/07/26 12:35:07;;;;;;;3.03;1.40;;;27.80;95.10;;;;;;5009985;28;20133;-71
2022/07/26 12:37:36;;;;;;;3.08;1.20;;;27.90;95.30;;;;;;5011852;28;20030;-71
2022/07/26 12:40:04;;;;;;;1.95;1.05;;;27.50;95.10;;;;;;5011704;28;20034;-71
2022/07/26 12:42:35;;;;;;;1.33;1.23;;;27.60;95.50;;;;;;5011130;28;20030;-71
2022/07/26 12:45:02;;;;;;;1.85;1.23;;;27.90;94.70;;;;;;5011813;28;20110;-71
2022/07/26 12:47:28;;;;;;;1.63;1.15;;;27.40;93.50;;;;;;5014696;28;20053;-71
2022/07/26 12:49:54;;;;;;;2.30;1.27;;;27.20;94.60;;;;;;5015805;28;20026;-71